Flight Track Log - Related Links

Times and Time Zones

All times are in EDT time to prevent confusion due to time zone crossing. See the EJA881 flight status page for this flight to view local times or setup timezone preferences in your user account.

Time Position Orientation Groundspeed Altitude Reporting Facility
EDT Latitude Longitude Course Direction KTS MPH feet Rate Location/Type
Sun 01:02:01 PM 39.7000 -86.3000 232° Southwest 171 197 1,400  Level Indianapolis TRACON
Sun 01:02:49 PM 39.6717 -86.3467 232° Southwest 226 260 2,600 2,891 Climbing Indianapolis Center
Sun 01:03:51 PM 39.7017 -86.4100 302° West 229 264 6,700 3,194 Climbing Indianapolis Center
Sun 01:04:53 PM 39.7789 -86.4281 350° North 274 315 9,200 2,710 Climbing Indianapolis Center
Sun 01:05:55 PM 39.8583 -86.4594 343° North 301 346 12,300 2,710 Climbing Indianapolis Center
Sun 01:06:57 PM 39.9419 -86.4911 344° North 319 367 14,800 2,323 Climbing Indianapolis Center
Sun 01:07:59 PM 39.9936 -86.6183 298° West 336 387 17,100 2,129 Climbing Indianapolis Center
Sun 01:09:01 PM 40.0397 -86.7319 298° West 353 406 19,200 2,081 Climbing Indianapolis Center
Sun 01:10:03 PM 40.0858 -86.8461 298° West 356 410 21,400 1,887 Climbing Indianapolis Center
Sun 01:11:05 PM 40.1322 -86.9597 298° West 356 410 23,100 1,500 Climbing Indianapolis Center
Sun 01:12:07 PM 40.1803 -87.0767 298° West 364 419 24,500 1,385 Climbing Indianapolis Center
Sun 01:12:49 PM 40.2197 -87.1769 297° West 381 438 25,500 1,327 Climbing Chicago Center
Sun 01:13:51 PM 40.2700 -87.3019 298° West 389 448 26,800 1,210 Climbing Chicago Center
Sun 01:14:53 PM 40.3217 -87.4314 298° West 401 461 28,000 1,210 Climbing Chicago Center
Sun 01:15:55 PM 40.3781 -87.5669 299° West 405 466 29,300 1,306 Climbing Chicago Center
Sun 01:16:57 PM 40.4289 -87.6969 297° West 403 464 30,700 1,403 Climbing Chicago Center
Sun 01:17:59 PM 40.4903 -87.8506 298° West 398 458 32,200 1,161 Climbing Chicago Center
Sun 01:19:01 PM 40.5406 -87.9789 297° West 398 458 33,100 823 Climbing Chicago Center
Sun 01:20:03 PM 40.5922 -88.1097 298° West 403 464 33,900 677 Climbing Chicago Center
Sun 01:21:05 PM 40.6456 -88.2433 298° West 415 478 34,500 677 Climbing Chicago Center
Sun 01:22:07 PM 40.6981 -88.3800 297° West 419 482 35,300 726 Climbing Chicago Center
Sun 01:23:09 PM 40.7506 -88.5142 297° West 415 478 36,000 339 Climbing Chicago Center
Sun 01:24:11 PM 40.8167 -88.6825 297° West 432 497 36,000  Level Chicago Center
Sun 01:25:13 PM 40.8733 -88.8289 297° West 446 513 36,000  Level Chicago Center
Sun 01:26:15 PM 40.9247 -88.9658 296° West 447 514 36,000  Level Chicago Center
Sun 01:27:17 PM 40.9819 -89.1125 297° West 450 518 36,000  Level Chicago Center
Sun 01:28:19 PM 41.0494 -89.2886 297° West 450 518 36,000  Level Chicago Center
Sun 01:29:21 PM 41.1047 -89.4364 296° West 451 519 36,000  Level Chicago Center
Sun 01:30:23 PM 41.1606 -89.5836 297° West 452 520 36,000  Level Chicago Center
Sun 01:31:25 PM 41.2100 -89.7319 294° West 444 511 36,000  Level Chicago Center
Sun 01:32:27 PM 41.2603 -89.8811 294° West 445 512 36,000  Level Chicago Center
Sun 01:33:29 PM 41.3189 -90.0608 294° West 444 511 36,000  Level Chicago Center
Sun 01:34:31 PM 41.3597 -90.2131 290° West 441 507 36,000  Level Chicago Center
Sun 01:35:33 PM 41.4017 -90.3658 290° West 442 509 36,000  Level Chicago Center
Sun 01:36:35 PM 41.4439 -90.5169 290° West 437 503 36,000  Level Chicago Center
Sun 01:37:37 PM 41.4833 -90.6739 289° West 447 514 36,000  Level Chicago Center
Sun 01:38:39 PM 41.5278 -90.8408 290° West 442 509 36,000  Level Chicago Center
Sun 01:39:41 PM 41.5681 -90.9928 290° West 438 504 36,000  Level Chicago Center
Sun 01:40:43 PM 41.6083 -91.1442 290° West 436 502 36,000  Level Chicago Center
Sun 01:41:45 PM 41.6483 -91.2967 289° West 437 503 36,000  Level Chicago Center
Sun 01:42:47 PM 41.6953 -91.4806 289° West 437 503 36,000  Level Chicago Center
Sun 01:43:49 PM 41.7356 -91.6311 290° West 435 501 36,000  Level Chicago Center
Sun 01:44:51 PM 41.7747 -91.7839 289° West 435 501 36,000  Level Chicago Center
Sun 01:45:53 PM 41.8133 -91.9383 289° West 437 503 36,000  Level Chicago Center
Sun 01:46:55 PM 41.8567 -92.1072 289° West 437 503 36,000  Level Chicago Center
Sun 01:47:57 PM 41.8914 -92.2450 289° West 438 504 36,000  Level Chicago Center
Sun 01:48:59 PM 41.9378 -92.4297 289° West 439 505 36,000 339 Level Chicago Center
Sun 01:50:01 PM 41.9750 -92.5836 288° West 436 502 36,700 738 Climbing Chicago Center
Sun 01:51:01 PM 42.0125 -92.7353 288° West 430 495 37,500 639 Climbing Minneapolis Center
Sun 01:52:03 PM 42.0483 -92.8836 288° West 425 489 38,000 219 Climbing Minneapolis Center
Sun 01:53:18 PM 42.0928 -93.0661 288° West 429 494 38,000  Level Minneapolis Center
Sun 01:54:20 PM 42.1308 -93.2225 288° West 438 504 38,000  Level Minneapolis Center
Sun 01:55:22 PM 42.1764 -93.4103 288° West 442 509 38,000  Level Minneapolis Center
Sun 01:56:24 PM 42.2142 -93.5664 288° West 441 507 38,000  Level Minneapolis Center
Sun 01:57:26 PM 42.2517 -93.7236 288° West 443 510 38,000  Level Minneapolis Center
Sun 01:58:28 PM 42.2889 -93.8817 288° West 446 513 38,000  Level Minneapolis Center
Sun 01:59:30 PM 42.3250 -94.0397 287° West 445 512 38,000  Level Minneapolis Center
Sun 02:00:32 PM 42.3675 -94.2286 287° West 442 509 38,000  Level Minneapolis Center
Sun 02:01:34 PM 42.4078 -94.3881 289° West 433 498 38,000  Level Minneapolis Center
Sun 02:02:36 PM 42.4414 -94.5456 286° West 435 501 38,000  Level Minneapolis Center
Sun 02:03:38 PM 42.4769 -94.7022 287° West 436 502 38,000  Level Minneapolis Center
Sun 02:04:40 PM 42.5131 -94.8581 287° West 436 502 38,000 339 Level Minneapolis Center
Sun 02:05:42 PM 42.5544 -95.0433 287° West 432 497 38,700 629 Climbing Minneapolis Center
Sun 02:06:44 PM 42.5875 -95.1967 286° West 427 491 39,300 581 Climbing Minneapolis Center
Sun 02:07:46 PM 42.6208 -95.3486 287° West 422 486 39,900 336 Climbing Minneapolis Center
Sun 02:08:49 PM 42.6533 -95.4994 286° West 417 480 40,000 48 Climbing Minneapolis Center
Sun 02:09:51 PM 42.6864 -95.6522 286° West 420 483 40,000  Level Minneapolis Center
Sun 02:10:53 PM 42.7261 -95.8367 286° West 424 488 40,000  Level Minneapolis Center
Sun 02:11:55 PM 42.7594 -95.9947 286° West 431 496 40,000  Level Minneapolis Center
Sun 02:12:57 PM 42.7931 -96.1539 286° West 436 502 40,000  Level Minneapolis Center
Sun 02:13:59 PM 42.8261 -96.3114 286° West 434 499 40,000  Level Minneapolis Center
Sun 02:15:01 PM 42.8592 -96.4678 286° West 431 496 40,000  Level Minneapolis Center
Sun 02:16:03 PM 42.8908 -96.6239 286° West 428 493 40,000  Level Minneapolis Center
Sun 02:17:05 PM 42.9233 -96.7806 286° West 428 493 40,000  Level Minneapolis Center
Sun 02:18:07 PM 42.9608 -96.9664 285° West 424 488 40,000  Level Minneapolis Center
Sun 02:19:09 PM 42.9922 -97.1208 286° West 423 487 40,000  Level Minneapolis Center
Sun 02:20:24 PM 43.0292 -97.3042 285° West 417 480 40,000  Level Minneapolis Center
Sun 02:21:26 PM 43.0581 -97.4539 285° West 410 472 40,000  Level Minneapolis Center
Sun 02:22:28 PM 43.0872 -97.6003 285° West 401 461 40,000  Level Minneapolis Center
Sun 02:23:30 PM 43.1164 -97.7481 285° West 402 463 40,000  Level Minneapolis Center
Sun 02:24:32 PM 43.1500 -97.9225 285° West 396 456 40,000  Level Minneapolis Center
Sun 02:25:34 PM 43.1775 -98.0672 285° West 394 453 40,000  Level Minneapolis Center
Sun 02:26:36 PM 43.2050 -98.2106 285° West 391 450 40,000  Level Minneapolis Center
Sun 02:27:38 PM 43.2331 -98.3569 285° West 396 456 40,000  Level Minneapolis Center
Sun 02:28:40 PM 43.2603 -98.5028 284° West 395 455 40,000  Level Minneapolis Center
Sun 02:29:42 PM 43.2869 -98.6497 284° West 397 457 40,000  Level Minneapolis Center
Sun 02:30:44 PM 43.3203 -98.8267 285° West 399 459 40,000  Level Minneapolis Center
Sun 02:31:46 PM 43.3467 -98.9725 284° West 396 456 40,000  Level Minneapolis Center
Sun 02:32:48 PM 43.3725 -99.1114 284° West 399 459 40,000  Level Minneapolis Center
Sun 02:33:51 PM 43.3989 -99.2586 284° West 397 457 40,000  Level Minneapolis Center
Sun 02:34:53 PM 43.4306 -99.4353 284° West 397 457 40,000  Level Minneapolis Center
Sun 02:35:55 PM 43.4558 -99.5825 283° West 396 456 40,000  Level Minneapolis Center
Sun 02:36:57 PM 43.4817 -99.7281 284° West 392 451 40,000  Level Minneapolis Center
Sun 02:37:59 PM 43.5061 -99.8756 283° West 393 452 40,000  Level Minneapolis Center
Sun 02:39:01 PM 43.5292 -100.0203 282° West 391 450 40,000  Level Minneapolis Center
Sun 02:40:03 PM 43.5528 -100.1622 283° West 384 442 40,000  Level Minneapolis Center
Sun 02:41:05 PM 43.5761 -100.3069 283° West 384 442 40,000  Level Minneapolis Center
Sun 02:42:07 PM 43.6033 -100.4792 282° West 384 442 40,000  Level Minneapolis Center
Sun 02:43:09 PM 43.6258 -100.6233 282° West 384 442 40,000  Level Minneapolis Center
Sun 02:44:11 PM 43.6486 -100.7669 282° West 383 441 40,000  Level Minneapolis Center
Sun 02:45:05 PM 43.6669 -100.8806 283° West 385 443 40,000  Level Denver Center
Sun 02:46:07 PM 43.6936 -101.0556 282° West 387 445 40,000  Level Denver Center
Sun 02:47:09 PM 43.7156 -101.1992 282° West 382 440 40,000  Level Denver Center
Sun 02:48:11 PM 43.7369 -101.3414 282° West 379 436 40,000  Level Denver Center
Sun 02:49:13 PM 43.7592 -101.4864 282° West 383 441 40,000  Level Denver Center
Sun 02:50:15 PM 43.7794 -101.6272 281° West 374 430 40,000  Level Denver Center
Sun 02:51:17 PM 43.8006 -101.7689 282° West 374 430 40,000  Level Denver Center
Sun 02:52:19 PM 43.8211 -101.9106 281° West 374 430 40,000  Level Denver Center
Sun 02:53:21 PM 43.8467 -102.0833 282° West 381 438 40,000  Level Denver Center
Sun 02:54:23 PM 43.8678 -102.2319 281° West 380 437 40,000  Level Denver Center
Sun 02:55:25 PM 43.8872 -102.3722 281° West 384 442 40,000  Level Denver Center
Sun 02:56:27 PM 43.9075 -102.5189 281° West 386 444 40,000  Level Denver Center
Sun 02:57:29 PM 43.9297 -102.6675 282° West 390 449 40,000  Level Denver Center
Sun 02:58:31 PM 43.9483 -102.8125 280° West 386 444 40,000  Level Denver Center
Sun 02:59:33 PM 43.9717 -102.9786 281° West 386 444 40,000  Level Denver Center
Sun 03:00:35 PM 43.9936 -103.1194 282° West 388 447 40,000  Level Denver Center
Sun 03:01:37 PM 44.0189 -103.2803 282° West 385 443 40,000  Level Denver Center
Sun 03:02:39 PM 44.0411 -103.4192 283° West 384 442 40,000  Level Denver Center
Sun 03:03:41 PM 44.0656 -103.5819 282° West 385 443 40,000  Level Denver Center
Sun 03:04:43 PM 44.0883 -103.7208 283° West 385 443 40,000  Level Denver Center
Sun 03:05:45 PM 44.1086 -103.8358 284° West 384 442 40,000  Level Denver Center
Sun 03:06:47 PM 44.1414 -104.0181 284° West 382 440 40,000  Level Denver Center
Sun 03:07:49 PM 44.1683 -104.1775 283° West 381 438 40,000  Level Denver Center
Sun 03:08:51 PM 44.1925 -104.3144 284° West 381 438 40,000  Level Denver Center
Sun 03:09:53 PM 44.2194 -104.4781 283° West 383 441 40,000  Level Denver Center
Sun 03:10:55 PM 44.2428 -104.6172 283° West 385 443 40,000  Level Denver Center
Sun 03:11:58 PM 44.2706 -104.7786 284° West 385 443 40,000  Level Denver Center
Sun 03:12:59 PM 44.2861 -104.8717 283° West 386 444 40,000  Level Denver Center
Sun 03:14:02 PM 44.3208 -105.0836 283° West 388 447 40,000  Level Denver Center
Sun 03:15:04 PM 44.3444 -105.2256 283° West 390 449 40,000  Level Denver Center
Sun 03:16:05 PM 44.3636 -105.3450 283° West 392 451 40,000  Level Denver Center
Sun 03:17:08 PM 44.3933 -105.5336 282° West 392 451 40,000  Level Denver Center
Sun 03:18:10 PM 44.4194 -105.6997 282° West 392 451 40,000  Level Denver Center
Sun 03:19:12 PM 44.4417 -105.8417 282° West 392 451 40,000  Level Denver Center
Sun 03:20:14 PM 44.4639 -105.9842 282° West 392 451 40,000  Level Denver Center
Sun 03:21:16 PM 44.4892 -106.1494 282° West 391 450 40,000  Level Denver Center
Sun 03:22:18 PM 44.5111 -106.2911 282° West 390 449 40,000  Level Denver Center
Sun 03:23:20 PM 44.5361 -106.4564 282° West 390 449 40,000  Level Denver Center
Sun 03:24:22 PM 44.5581 -106.5992 282° West 390 449 40,000  Level Denver Center
Sun 03:25:24 PM 44.5828 -106.7672 282° West 392 451 40,000  Level Denver Center
Sun 03:26:26 PM 44.6042 -106.9106 282° West 393 452 40,000  Level Denver Center
Sun 03:27:55 PM 44.6392 -107.1511 282° West 392 451 40,000  Level Salt Lake Center
Sun 03:28:57 PM 44.6606 -107.3025 281° West 395 455 40,000  Level Salt Lake Center
Sun 03:29:59 PM 44.6814 -107.4469 282° West 395 455 40,000  Level Salt Lake Center
Sun 03:31:01 PM 44.7056 -107.6167 281° West 397 457 40,000  Level Salt Lake Center
Sun 03:32:03 PM 44.7253 -107.7633 281° West 399 459 40,000  Level Salt Lake Center
Sun 03:33:05 PM 44.7478 -107.9344 281° West 400 460 40,000 48 Level Salt Lake Center
Sun 03:34:07 PM 44.7678 -108.0800 281° West 398 458 40,100  Climbing Salt Lake Center
Sun 03:35:09 PM 44.7897 -108.2514 280° West 398 458 40,000 -48 Descending Salt Lake Center
Sun 03:36:11 PM 44.8097 -108.3981 281° West 399 459 40,000  Level Salt Lake Center
Sun 03:37:13 PM 44.8319 -108.5692 280° West 399 459 40,000  Level Salt Lake Center
Sun 03:38:15 PM 44.8517 -108.7142 281° West 397 457 40,000  Level Salt Lake Center
Sun 03:39:17 PM 44.8694 -108.8586 280° West 394 453 40,000  Level Salt Lake Center
Sun 03:40:19 PM 44.8889 -109.0250 279° West 388 447 40,000  Level Salt Lake Center
Sun 03:41:21 PM 44.9086 -109.1675 281° West 386 444 40,000  Level Salt Lake Center
Sun 03:42:23 PM 44.9297 -109.3342 280° West 389 448 40,000  Level Salt Lake Center
Sun 03:43:25 PM 44.9469 -109.4789 280° West 390 449 40,000  Level Salt Lake Center
Sun 03:44:27 PM 44.9669 -109.6456 280° West 388 447 40,000  Level Salt Lake Center
Sun 03:45:29 PM 44.9842 -109.7883 280° West 386 444 40,000  Level Salt Lake Center
Sun 03:46:31 PM 45.0042 -109.9569 280° West 390 449 40,000  Level Salt Lake Center
Sun 03:47:33 PM 45.0208 -110.0992 279° West 387 445 40,000  Level Salt Lake Center
Sun 03:48:35 PM 45.0394 -110.2669 279° West 387 445 40,000  Level Salt Lake Center
Sun 03:49:37 PM 45.0567 -110.4131 280° West 392 451 40,000  Level Salt Lake Center
Sun 03:50:39 PM 45.0753 -110.5792 279° West 388 447 40,000  Level Salt Lake Center
Sun 03:51:41 PM 45.0911 -110.7236 279° West 388 447 40,000  Level Salt Lake Center
Sun 03:52:43 PM 45.1097 -110.8925 279° West 390 449 40,000  Level Salt Lake Center
Sun 03:53:45 PM 45.1242 -111.0222 279° West 388 447 40,000  Level Salt Lake Center
Sun 03:54:47 PM 45.1439 -111.2039 279° West 387 445 40,000  Level Salt Lake Center
Sun 03:55:49 PM 45.1600 -111.3558 279° West 389 448 40,000  Level Salt Lake Center
Sun 03:56:50 PM 45.1753 -111.5083 278° West 389 448 40,000  Level Salt Lake Center
Sun 03:57:52 PM 45.1914 -111.6617 279° West 391 450 40,000  Level Salt Lake Center
Sun 03:58:54 PM 45.2069 -111.8139 278° West 389 448 40,000  Level Salt Lake Center
Sun 03:59:56 PM 45.2222 -111.9689 278° West 393 452 40,000  Level Salt Lake Center
Sun 04:00:58 PM 45.2406 -112.1447 278° West 391 450 40,000  Level Salt Lake Center
Sun 04:02:00 PM 45.2542 -112.2925 278° West 392 451 40,000  Level Salt Lake Center
Sun 04:03:02 PM 45.2706 -112.4633 278° West 393 452 40,000  Level Salt Lake Center
Sun 04:04:04 PM 45.2844 -112.6106 278° West 394 453 40,000  Level Salt Lake Center
Sun 04:05:06 PM 45.2994 -112.7828 277° West 395 455 40,000  Level Salt Lake Center
Sun 04:06:08 PM 45.3136 -112.9286 278° West 392 451 40,000  Level Salt Lake Center
Sun 04:07:10 PM 45.3275 -113.0758 278° West 393 452 40,000  Level Salt Lake Center
Sun 04:08:12 PM 45.3417 -113.2503 277° West 397 457 40,000  Level Salt Lake Center
Sun 04:09:14 PM 45.3578 -113.4203 278° West 396 456 40,000  Level Salt Lake Center
Sun 04:10:16 PM 45.3714 -113.5761 277° West 397 457 40,000  Level Salt Lake Center
Sun 04:11:18 PM 45.3856 -113.7219 278° West 400 460 40,000  Level Salt Lake Center
Sun 04:12:20 PM 45.4003 -113.8964 277° West 399 459 40,000  Level Salt Lake Center
Sun 04:13:22 PM 45.4117 -114.0447 276° West 397 457 40,000  Level Salt Lake Center
Sun 04:14:24 PM 45.4242 -114.2172 276° West 395 455 40,000  Level Salt Lake Center
Sun 04:15:26 PM 45.4364 -114.3686 277° West 399 459 40,000  Level Salt Lake Center
Sun 04:16:28 PM 45.4497 -114.5444 276° West 400 460 40,000  Level Salt Lake Center
Sun 04:17:30 PM 45.4611 -114.6964 276° West 403 464 40,000  Level Salt Lake Center
Sun 04:18:32 PM 45.4747 -114.8725 276° West 403 464 40,000  Level Salt Lake Center
Sun 04:19:33 PM 45.4864 -115.0236 276° West 403 464 40,000  Level Salt Lake Center
Sun 04:20:35 PM 45.4969 -115.1997 275° West 403 464 40,000  Level Salt Lake Center
Sun 04:21:37 PM 45.5083 -115.3508 276° West 402 463 40,000  Level Salt Lake Center
Sun 04:22:39 PM 45.5181 -115.5022 275° West 401 461 40,000  Level Salt Lake Center
Sun 04:23:41 PM 45.5300 -115.6800 276° West 404 465 40,000  Level Salt Lake Center
Sun 04:24:43 PM 45.5408 -115.8319 276° West 403 464 40,000  Level Salt Lake Center
Sun 04:25:45 PM 45.5439 -116.0131 271° West 409 471 40,000  Level Salt Lake Center
Sun 04:26:47 PM 45.5458 -116.1639 271° West 404 465 40,000  Level Salt Lake Center
Sun 04:27:49 PM 45.5472 -116.3392 271° West 399 459 40,000  Level Salt Lake Center
Sun 04:28:50 PM 45.5492 -116.4903 271° West 400 460 40,000  Level Salt Lake Center
Sun 04:29:52 PM 45.5506 -116.6692 271° West 404 465 40,000  Level Salt Lake Center
Sun 04:30:54 PM 45.5511 -116.8242 270° West 407 468 40,000  Level Salt Lake Center
Sun 04:31:56 PM 45.5522 -117.0031 271° West 408 470 40,000  Level Salt Lake Center
Sun 04:32:58 PM 45.5536 -117.1564 271° West 406 467 40,000  Level Salt Lake Center
Sun 04:34:00 PM 45.5533 -117.3383 270° West 411 473 40,000  Level Salt Lake Center
Sun 04:35:02 PM 45.5533 -117.4942 270° West 412 474 40,000  Level Salt Lake Center
Sun 04:36:03 PM 45.5544 -117.6506 271° West 414 476 40,000  Level Salt Lake Center
Sun 04:37:21 PM 45.5522 -117.8636 269° West 415 478 40,000  Level Seattle Center
Sun 04:38:22 PM 45.5519 -118.0278 270° West 415 478 40,000  Level Seattle Center
Sun 04:39:23 PM 45.5519 -118.1925 270° West 418 481 40,000  Level Seattle Center
Sun 04:40:25 PM 45.5497 -118.3556 269° West 415 478 40,000  Level Seattle Center
Sun 04:41:26 PM 45.5492 -118.5517 270° West 415 478 40,000  Level Seattle Center
Sun 04:42:27 PM 45.5469 -118.7147 269° West 415 478 40,000  Level Seattle Center
Sun 04:43:28 PM 45.5456 -118.8769 269° West 412 474 40,000  Level Seattle Center
Sun 04:44:29 PM 45.5431 -119.0403 269° West 412 474 40,000  Level Seattle Center
Sun 04:45:30 PM 45.5417 -119.2028 269° West 412 474 40,000 -293 Level Seattle Center
Sun 04:46:32 PM 45.5383 -119.3669 268° West 416 479 39,400 -639 Descending Seattle Center
Sun 04:47:32 PM 45.5358 -119.5353 269° West 425 489 38,700 -645 Descending Seattle Center
Sun 04:48:33 PM 45.5322 -119.7083 268° West 436 502 38,100 -341 Descending Seattle Center
Sun 04:49:35 PM 45.5294 -119.8775 269° West 432 497 38,000 -585 Descending Seattle Center
Sun 04:50:36 PM 45.5250 -120.0817 268° West 433 498 36,900 -1,574 Descending Seattle Center
Sun 04:51:37 PM 45.5217 -120.2464 268° West 423 487 34,800 -1,967 Descending Seattle Center
Sun 04:52:38 PM 45.5178 -120.4164 268° West 428 493 32,900 -1,967 Descending Seattle Center
Sun 04:53:39 PM 45.5206 -120.5950 271° West 448 516 30,800 -2,115 Descending Seattle Center
Sun 04:54:40 PM 45.5228 -120.7697 271° West 445 512 28,600 -2,213 Descending Seattle Center
Sun 04:55:41 PM 45.5233 -120.9472 270° West 448 516 26,300 -2,262 Descending Seattle Center
Sun 04:56:42 PM 45.5256 -121.1203 271° West 442 509 24,000 -2,410 Descending Seattle Center
Sun 04:57:43 PM 45.5258 -121.2881 270° West 429 494 21,400 -3,267 Descending Seattle Center
Sun 04:58:23 PM 45.5300 -121.4192 273° West 390 449 18,500 -4,080 Descending Seattle Center
Sun 04:59:23 PM 45.5286 -121.5558 269° West 331 381 14,600 -3,827 Descending Seattle Center
Sun 05:00:30 PM 45.5289 -121.6919 270° West 311 358 10,400 -2,705 Descending Seattle Center
Sun 05:01:25 PM 45.5328 -121.7922 273° West 273 314 9,100 -1,293 Descending Seattle Center
Sun 05:02:26 PM 45.5356 -121.8994 272° West 268 308 7,900 -1,289 Descending Seattle Center
Sun 05:03:26 PM 45.5225 -122.0036 260° West 235 270 6,500 -942 Descending Seattle Center
Sun 05:04:27 PM 45.5125 -122.0914 261° West 222 255 6,000 -492 Descending Seattle Center
Sun 05:05:28 PM 45.5003 -122.1797 259° West 230 265 5,500 -574 Descending Seattle Center
Sun 05:06:22 PM 45.4908 -122.2608 261° West 225 259 4,900 -897 Descending Seattle Center
Sun 05:06:55 PM 45.4861 -122.2936 258° West 226 260 4,200 -1,315 Descending Seattle Center
Sun 05:07:35 PM 45.5006 -122.3617 287° West 217 250 3,300 -1,188 Descending Seattle Center
Sun 05:08:36 PM 45.5303 -122.4328 301° West 211 243 2,200 -1,041 Descending Seattle Center
Sun 05:09:36 PM 45.5556 -122.4933 301° West 166 191 1,200 -797 Descending Seattle Center
Sun 05:10:59 PM 45.5806 -122.5561 300° West 178 205 300 -651 Descending Seattle Center
Sun 05:12:00 PM 45.5887 -122.5969 298° West  Level Estimated

Login

Don't have an account? Register now (free) for customized features, flight alerts, and more!